SWA1233 KBWI-KORF
Flight info
| Callsign | SWA1233 |
|---|---|
| Flight time | 0h 35m |
| Altitude | 14000 |
| Route | CONLE5 COLIN OUTLA1 |
| Aircraft | B38M/M-SADE2E3GHIJ4J7P2RWZ/LB1D1 |
Departure
| Time | 2026-04-26 15:38 |
|---|---|
| Airport | Baltimore/Washington International Thurgood Marshall Airport (KBWI) |
Arrival
| Time | 2026-04-26 16:14 |
|---|---|
| Airport | Norfolk International Airport (KORF) |
| Time | Latitude | Longitude | Altitude | Speed | Heading |
|---|---|---|---|---|---|
| 2026-04-26 15:17 | 39.17752 | -76.66596 | 159 ft | 0 kts | 256° |
| 2026-04-26 15:28 | 39.17753 | -76.66589 | 159 ft | 3 kts | 255° |
| 2026-04-26 15:29 | 39.17757 | -76.66567 | 159 ft | 3 kts | 255° |
| 2026-04-26 15:29 | 39.17762 | -76.66545 | 159 ft | 2 kts | 255° |
| 2026-04-26 15:29 | 39.17766 | -76.66525 | 159 ft | 0 kts | 255° |
| 2026-04-26 15:32 | 39.17762 | -76.66531 | 159 ft | 1 kts | 223° |
| 2026-04-26 15:32 | 39.17744 | -76.66508 | 159 ft | 9 kts | 110° |
| 2026-04-26 15:32 | 39.17698 | -76.66412 | 158 ft | 11 kts | 179° |
| 2026-04-26 15:33 | 39.17626 | -76.66471 | 157 ft | 18 kts | 215° |
| 2026-04-26 15:33 | 39.17518 | -76.66591 | 157 ft | 20 kts | 256° |
| 2026-04-26 15:33 | 39.17524 | -76.66774 | 158 ft | 21 kts | 270° |
| 2026-04-26 15:33 | 39.17466 | -76.66919 | 157 ft | 18 kts | 276° |
| 2026-04-26 15:34 | 39.17518 | -76.67075 | 155 ft | 21 kts | 310° |
| 2026-04-26 15:34 | 39.17639 | -76.67193 | 154 ft | 23 kts | 325° |
| 2026-04-26 15:34 | 39.17777 | -76.67321 | 152 ft | 26 kts | 324° |
| 2026-04-26 15:34 | 39.17924 | -76.67459 | 151 ft | 27 kts | 324° |
| 2026-04-26 15:35 | 39.18084 | -76.67607 | 150 ft | 29 kts | 324° |
| 2026-04-26 15:35 | 39.18254 | -76.67764 | 149 ft | 31 kts | 324° |
| 2026-04-26 15:35 | 39.18419 | -76.67916 | 150 ft | 23 kts | 324° |
| 2026-04-26 15:35 | 39.18512 | -76.68004 | 150 ft | 11 kts | 323° |
| 2026-04-26 15:36 | 39.18565 | -76.68060 | 151 ft | 5 kts | 305° |
| 2026-04-26 15:36 | 39.18571 | -76.68085 | 151 ft | 0 kts | 276° |
| 2026-04-26 15:37 | 39.18572 | -76.68099 | 151 ft | 7 kts | 276° |
| 2026-04-26 15:37 | 39.18513 | -76.68172 | 148 ft | 15 kts | 180° |
| 2026-04-26 15:37 | 39.18379 | -76.68055 | 148 ft | 54 kts | 144° |
| 2026-04-26 15:38 | 39.17846 | -76.67557 | 147 ft | 132 kts | 144° |
| 2026-04-26 15:38 | 39.16954 | -76.66730 | 427 ft | 167 kts | 142° |
| 2026-04-26 15:38 | 39.15981 | -76.65855 | 1274 ft | 174 kts | 141° |
| 2026-04-26 15:38 | 39.14939 | -76.64931 | 1963 ft | 192 kts | 139° |
| 2026-04-26 15:39 | 39.13793 | -76.63845 | 2573 ft | 218 kts | 140° |
| 2026-04-26 15:39 | 39.12496 | -76.62625 | 3227 ft | 242 kts | 140° |
| 2026-04-26 15:39 | 39.11084 | -76.61298 | 4014 ft | 259 kts | 137° |
| 2026-04-26 15:39 | 39.10197 | -76.60231 | 4548 ft | 267 kts | 130° |
| 2026-04-26 15:40 | 39.08505 | -76.57920 | 5996 ft | 271 kts | 130° |
| 2026-04-26 15:40 | 39.07163 | -76.56106 | 6909 ft | 281 kts | 131° |
| 2026-04-26 15:40 | 39.05796 | -76.54271 | 7892 ft | 286 kts | 130° |
| 2026-04-26 15:40 | 39.04408 | -76.52413 | 8854 ft | 291 kts | 130° |
| 2026-04-26 15:41 | 39.02988 | -76.50517 | 9810 ft | 297 kts | 130° |
| 2026-04-26 15:41 | 39.01532 | -76.48577 | 10570 ft | 309 kts | 131° |
| 2026-04-26 15:41 | 38.99731 | -76.46906 | 11078 ft | 333 kts | 154° |
| 2026-04-26 15:41 | 38.97455 | -76.46253 | 11699 ft | 349 kts | 179° |
| 2026-04-26 15:42 | 38.95011 | -76.46821 | 12413 ft | 359 kts | 199° |
| 2026-04-26 15:42 | 38.92644 | -76.47770 | 13238 ft | 363 kts | 197° |
| 2026-04-26 15:42 | 38.90188 | -76.48705 | 13817 ft | 371 kts | 197° |
| 2026-04-26 15:42 | 38.87712 | -76.49632 | 13945 ft | 375 kts | 197° |
| 2026-04-26 15:43 | 38.85143 | -76.50595 | 13942 ft | 393 kts | 199° |
| 2026-04-26 15:43 | 38.82563 | -76.51850 | 13945 ft | 400 kts | 202° |
| 2026-04-26 15:43 | 38.77302 | -76.54442 | 13967 ft | 406 kts | 202° |
| 2026-04-26 15:44 | 38.74662 | -76.55721 | 13976 ft | 406 kts | 202° |
| 2026-04-26 15:44 | 38.69369 | -76.58266 | 13984 ft | 406 kts | 201° |
| 2026-04-26 15:44 | 38.66709 | -76.59496 | 13982 ft | 406 kts | 201° |
| 2026-04-26 15:45 | 38.61397 | -76.61957 | 13978 ft | 406 kts | 201° |
| 2026-04-26 15:45 | 38.58744 | -76.63187 | 13986 ft | 406 kts | 201° |
| 2026-04-26 15:46 | 38.53440 | -76.65642 | 14057 ft | 406 kts | 201° |
| 2026-04-26 15:46 | 38.50781 | -76.66871 | 14064 ft | 406 kts | 201° |
| 2026-04-26 15:46 | 38.48130 | -76.68095 | 14063 ft | 405 kts | 201° |
| 2026-04-26 15:46 | 38.46372 | -76.68907 | 14064 ft | 405 kts | 200° |
| 2026-04-26 15:47 | 38.42818 | -76.70528 | 14062 ft | 406 kts | 198° |
| 2026-04-26 15:47 | 38.37273 | -76.70722 | 14065 ft | 405 kts | 173° |
| 2026-04-26 15:47 | 38.34473 | -76.70317 | 14063 ft | 405 kts | 172° |
| 2026-04-26 15:48 | 38.31672 | -76.69889 | 14061 ft | 405 kts | 172° |
| 2026-04-26 15:48 | 38.28882 | -76.69448 | 14060 ft | 405 kts | 172° |
| 2026-04-26 15:48 | 38.26085 | -76.69000 | 14054 ft | 405 kts | 171° |
| 2026-04-26 15:48 | 38.23291 | -76.68551 | 14055 ft | 404 kts | 171° |
| 2026-04-26 15:49 | 38.20498 | -76.68102 | 14055 ft | 404 kts | 171° |
| 2026-04-26 15:49 | 38.17714 | -76.67654 | 14055 ft | 404 kts | 171° |
| 2026-04-26 15:49 | 38.14925 | -76.67206 | 14056 ft | 404 kts | 171° |
| 2026-04-26 15:49 | 38.12135 | -76.66758 | 14054 ft | 404 kts | 171° |
| 2026-04-26 15:50 | 38.09338 | -76.66453 | 14045 ft | 405 kts | 180° |
| 2026-04-26 15:50 | 38.06516 | -76.66661 | 14059 ft | 406 kts | 182° |
| 2026-04-26 15:50 | 38.03695 | -76.66871 | 14052 ft | 406 kts | 182° |
| 2026-04-26 15:50 | 38.00880 | -76.67077 | 14062 ft | 405 kts | 182° |
| 2026-04-26 15:51 | 37.98066 | -76.67283 | 14067 ft | 405 kts | 181° |
| 2026-04-26 15:51 | 37.95354 | -76.67481 | 14066 ft | 405 kts | 181° |
| 2026-04-26 15:51 | 37.92541 | -76.67686 | 14065 ft | 405 kts | 181° |
| 2026-04-26 15:51 | 37.89724 | -76.67890 | 14065 ft | 405 kts | 181° |
| 2026-04-26 15:52 | 37.86971 | -76.67611 | 14058 ft | 400 kts | 163° |
| 2026-04-26 15:52 | 37.84451 | -76.66263 | 14063 ft | 392 kts | 144° |
| 2026-04-26 15:52 | 37.82386 | -76.64063 | 14067 ft | 387 kts | 131° |
| 2026-04-26 15:52 | 37.81111 | -76.62414 | 14065 ft | 387 kts | 130° |
| 2026-04-26 15:53 | 37.78647 | -76.59150 | 14054 ft | 387 kts | 129° |
| 2026-04-26 15:53 | 37.76801 | -76.56666 | 14055 ft | 387 kts | 129° |
| 2026-04-26 15:53 | 37.74964 | -76.54174 | 14049 ft | 387 kts | 129° |
| 2026-04-26 15:53 | 37.73128 | -76.51674 | 14050 ft | 387 kts | 129° |
| 2026-04-26 15:54 | 37.71298 | -76.49181 | 14045 ft | 387 kts | 129° |
| 2026-04-26 15:54 | 37.69456 | -76.46673 | 14047 ft | 388 kts | 129° |
| 2026-04-26 15:54 | 37.67648 | -76.44212 | 14046 ft | 388 kts | 129° |
| 2026-04-26 15:54 | 37.65809 | -76.41711 | 14044 ft | 388 kts | 129° |
| 2026-04-26 15:55 | 37.63974 | -76.39219 | 14039 ft | 388 kts | 129° |
| 2026-04-26 15:55 | 37.62136 | -76.36722 | 14037 ft | 388 kts | 129° |
| 2026-04-26 15:55 | 37.60297 | -76.34227 | 14031 ft | 389 kts | 129° |
| 2026-04-26 15:55 | 37.58446 | -76.31725 | 14030 ft | 389 kts | 130° |
| 2026-04-26 15:56 | 37.56596 | -76.29243 | 14032 ft | 389 kts | 130° |
| 2026-04-26 15:56 | 37.54742 | -76.26754 | 14035 ft | 389 kts | 130° |
| 2026-04-26 15:56 | 37.52890 | -76.24271 | 14028 ft | 389 kts | 130° |
| 2026-04-26 15:56 | 37.51029 | -76.21776 | 14027 ft | 390 kts | 130° |
| 2026-04-26 15:57 | 37.49173 | -76.19290 | 14026 ft | 390 kts | 130° |
| 2026-04-26 15:57 | 37.47314 | -76.16802 | 14028 ft | 390 kts | 130° |
| 2026-04-26 15:57 | 37.45451 | -76.14312 | 14031 ft | 390 kts | 130° |
| 2026-04-26 15:57 | 37.44220 | -76.12665 | 14026 ft | 391 kts | 130° |
| 2026-04-26 15:58 | 37.41724 | -76.09334 | 14024 ft | 391 kts | 130° |
| 2026-04-26 15:58 | 37.39857 | -76.06842 | 14022 ft | 392 kts | 130° |
| 2026-04-26 15:58 | 37.37991 | -76.04355 | 14022 ft | 388 kts | 130° |
| 2026-04-26 15:58 | 37.36162 | -76.01966 | 14026 ft | 372 kts | 135° |
| 2026-04-26 15:59 | 37.34030 | -76.00233 | 14023 ft | 363 kts | 155° |
| 2026-04-26 15:59 | 37.31588 | -75.99399 | 14029 ft | 364 kts | 168° |
| 2026-04-26 15:59 | 37.29125 | -75.98847 | 14022 ft | 365 kts | 169° |
| 2026-04-26 15:59 | 37.26621 | -75.98315 | 14019 ft | 365 kts | 169° |
| 2026-04-26 16:00 | 37.24128 | -75.97729 | 13994 ft | 363 kts | 168° |
| 2026-04-26 16:00 | 37.21639 | -75.97121 | 13345 ft | 367 kts | 168° |
| 2026-04-26 16:00 | 37.19156 | -75.96516 | 12696 ft | 359 kts | 168° |
| 2026-04-26 16:00 | 37.16731 | -75.95926 | 12157 ft | 350 kts | 169° |
| 2026-04-26 16:01 | 37.14372 | -75.95352 | 11679 ft | 340 kts | 169° |
| 2026-04-26 16:01 | 37.12082 | -75.94795 | 11245 ft | 330 kts | 169° |
| 2026-04-26 16:01 | 37.09865 | -75.94255 | 10847 ft | 320 kts | 170° |
| 2026-04-26 16:01 | 37.08434 | -75.93907 | 10610 ft | 313 kts | 170° |
| 2026-04-26 16:02 | 37.05684 | -75.93238 | 10273 ft | 296 kts | 171° |
| 2026-04-26 16:02 | 37.03711 | -75.92757 | 10113 ft | 285 kts | 171° |
| 2026-04-26 16:02 | 37.01770 | -75.92462 | 9844 ft | 275 kts | 188° |
| 2026-04-26 16:02 | 37.01136 | -75.92576 | 9801 ft | 270 kts | 198° |
| 2026-04-26 16:03 | 36.98404 | -75.94339 | 9799 ft | 267 kts | 216° |
| 2026-04-26 16:03 | 36.96838 | -75.95588 | 9801 ft | 267 kts | 217° |
| 2026-04-26 16:03 | 36.95305 | -75.96882 | 9749 ft | 263 kts | 218° |
| 2026-04-26 16:03 | 36.93797 | -75.98173 | 9194 ft | 263 kts | 218° |
| 2026-04-26 16:04 | 36.92800 | -75.99026 | 8892 ft | 261 kts | 218° |
| 2026-04-26 16:04 | 36.91297 | -76.00300 | 8403 ft | 260 kts | 218° |
| 2026-04-26 16:04 | 36.89802 | -76.01556 | 7933 ft | 258 kts | 218° |
| 2026-04-26 16:04 | 36.88318 | -76.02811 | 7457 ft | 257 kts | 218° |
| 2026-04-26 16:05 | 36.86841 | -76.04056 | 7002 ft | 256 kts | 218° |
| 2026-04-26 16:05 | 36.85366 | -76.05298 | 6537 ft | 255 kts | 218° |
| 2026-04-26 16:05 | 36.83898 | -76.06536 | 6023 ft | 255 kts | 218° |
| 2026-04-26 16:05 | 36.81959 | -76.08198 | 5378 ft | 255 kts | 218° |
| 2026-04-26 16:06 | 36.80986 | -76.09053 | 5176 ft | 252 kts | 218° |
| 2026-04-26 16:06 | 36.79562 | -76.10311 | 4953 ft | 250 kts | 219° |
| 2026-04-26 16:06 | 36.78224 | -76.11672 | 4678 ft | 248 kts | 223° |
| 2026-04-26 16:06 | 36.76936 | -76.13083 | 4433 ft | 244 kts | 224° |
| 2026-04-26 16:07 | 36.75675 | -76.14489 | 4189 ft | 243 kts | 224° |
| 2026-04-26 16:07 | 36.74417 | -76.15899 | 3922 ft | 243 kts | 224° |
| 2026-04-26 16:07 | 36.73152 | -76.17307 | 3657 ft | 244 kts | 224° |
| 2026-04-26 16:07 | 36.71895 | -76.18730 | 3390 ft | 245 kts | 224° |
| 2026-04-26 16:08 | 36.70693 | -76.20224 | 3110 ft | 244 kts | 237° |
| 2026-04-26 16:08 | 36.70112 | -76.22131 | 2827 ft | 237 kts | 269° |
| 2026-04-26 16:08 | 36.70387 | -76.24066 | 2646 ft | 222 kts | 299° |
| 2026-04-26 16:08 | 36.71114 | -76.25696 | 2606 ft | 209 kts | 305° |
| 2026-04-26 16:09 | 36.72078 | -76.26924 | 2535 ft | 192 kts | 337° |
| 2026-04-26 16:09 | 36.73305 | -76.27374 | 2516 ft | 181 kts | 349° |
| 2026-04-26 16:09 | 36.74514 | -76.27744 | 2586 ft | 173 kts | 349° |
| 2026-04-26 16:09 | 36.75642 | -76.28098 | 2556 ft | 163 kts | 349° |
| 2026-04-26 16:10 | 36.76748 | -76.28331 | 2526 ft | 161 kts | 358° |
| 2026-04-26 16:10 | 36.77869 | -76.28416 | 2480 ft | 161 kts | 359° |
| 2026-04-26 16:10 | 36.78969 | -76.28490 | 2297 ft | 154 kts | 359° |
| 2026-04-26 16:10 | 36.80009 | -76.28508 | 2112 ft | 146 kts | 9° |
| 2026-04-26 16:11 | 36.80962 | -76.28101 | 2010 ft | 146 kts | 25° |
| 2026-04-26 16:11 | 36.81808 | -76.27401 | 1829 ft | 146 kts | 36° |
| 2026-04-26 16:11 | 36.82591 | -76.26626 | 1650 ft | 139 kts | 37° |
| 2026-04-26 16:11 | 36.83330 | -76.25907 | 1458 ft | 135 kts | 36° |
| 2026-04-26 16:12 | 36.84064 | -76.25199 | 1279 ft | 133 kts | 36° |
| 2026-04-26 16:12 | 36.84790 | -76.24496 | 1114 ft | 132 kts | 36° |
| 2026-04-26 16:12 | 36.86192 | -76.23129 | 715 ft | 126 kts | 36° |
| 2026-04-26 16:13 | 36.86915 | -76.22440 | 522 ft | 132 kts | 34° |
| 2026-04-26 16:13 | 36.87629 | -76.21751 | 376 ft | 128 kts | 35° |
| 2026-04-26 16:13 | 36.88326 | -76.21086 | 168 ft | 128 kts | 36° |
| 2026-04-26 16:13 | 36.89041 | -76.20391 | 17 ft | 130 kts | 34° |
| 2026-04-26 16:14 | 36.89630 | -76.19832 | 10 ft | 72 kts | 36° |
| 2026-04-26 16:14 | 36.89872 | -76.19589 | 7 ft | 33 kts | 38° |
| 2026-04-26 16:14 | 36.90043 | -76.19642 | 5 ft | 18 kts | 227° |
| 2026-04-26 16:15 | 36.89934 | -76.19743 | 5 ft | 21 kts | 216° |
| 2026-04-26 16:15 | 36.89892 | -76.19805 | 7 ft | 3 kts | 283° |
| 2026-04-26 16:15 | 36.89915 | -76.19824 | 7 ft | 7 kts | 333° |
| 2026-04-26 16:16 | 36.90009 | -76.20023 | 5 ft | 17 kts | 273° |
| 2026-04-26 16:16 | 36.90012 | -76.20164 | 6 ft | 12 kts | 283° |
| 2026-04-26 16:16 | 36.89999 | -76.20211 | 5 ft | 5 kts | 188° |
| 2026-04-26 16:16 | 36.89965 | -76.20217 | 5 ft | 0 kts | 192° |